Time;durP1;ratioP1;P1;durP2;ratioP2;P2;SDS_P1;SDS_P2;PMS_P1;PMS_P2;Temp;Humidity;BMP_temperature;BMP_pressure;BME280_temperature;BME280_humidity;BME280_pressure;Samples;Min_cycle;Max_cycle;Signal;HPM_P1;HPM_P2
2022/03/15 00:02:08;;;;;;;1999.90;999.90;;;;;;;6.14;100.00;102131.47;5034069;28;20072;-78
2022/03/15 00:04:41;;;;;;;1999.90;999.90;;;;;;;6.18;100.00;102138.13;5043099;28;20037;-78
2022/03/15 00:07:16;;;;;;;1999.90;999.90;;;;;;;6.10;100.00;102141.06;5041478;28;20053;-78
2022/03/15 00:09:50;;;;;;;1999.90;999.90;;;;;;;6.13;100.00;102144.19;5035411;28;20054;-77
2022/03/15 00:12:23;;;;;;;1999.90;999.90;;;;;;;6.13;100.00;102138.78;5044254;28;20060;-77
2022/03/15 00:14:56;;;;;;;1999.90;999.90;;;;;;;6.06;100.00;102137.13;5035769;28;20633;-76
2022/03/15 00:17:33;;;;;;;1999.90;999.90;;;;;;;6.05;100.00;102139.00;5050697;28;20045;-77
2022/03/15 00:20:10;;;;;;;1999.90;999.90;;;;;;;5.99;100.00;102131.75;5031072;28;20049;-76
2022/03/15 00:22:39;;;;;;;1999.90;999.90;;;;;;;5.95;100.00;102133.19;5037020;28;20275;-76
2022/03/15 00:25:10;;;;;;;1999.90;999.90;;;;;;;5.81;100.00;102129.69;5061853;28;20048;-78
2022/03/15 00:27:44;;;;;;;1999.90;999.90;;;;;;;5.74;100.00;102123.47;5028974;28;20049;-78
2022/03/15 00:30:20;;;;;;;1999.90;999.90;;;;;;;5.74;100.00;102129.69;5045216;28;20517;-78
2022/03/15 00:32:52;;;;;;;1999.90;999.90;;;;;;;5.75;100.00;102130.56;5041174;28;20079;-78
2022/03/15 00:35:26;;;;;;;1999.90;999.90;;;;;;;5.77;100.00;102142.81;5042852;28;20041;-76
2022/03/15 00:38:00;;;;;;;1999.90;999.90;;;;;;;5.77;100.00;102133.84;5037083;28;20067;-77
2022/03/15 00:40:33;;;;;;;1999.90;999.90;;;;;;;5.69;100.00;102134.06;5038486;28;20056;-78
2022/03/15 00:43:08;;;;;;;1999.90;999.90;;;;;;;5.58;100.00;102141.81;5032579;28;20057;-78
2022/03/15 00:45:42;;;;;;;1999.90;999.90;;;;;;;5.67;100.00;102133.47;5038039;28;20052;-77
2022/03/15 00:48:10;;;;;;;1999.90;999.90;;;;;;;5.55;100.00;102138.69;5049035;28;20053;-77
2022/03/15 00:50:41;;;;;;;1999.90;999.90;;;;;;;5.65;100.00;102147.19;5038411;28;20055;-77
2022/03/15 00:53:15;;;;;;;1999.90;999.90;;;;;;;5.67;100.00;102139.69;5046336;28;20049;-78
2022/03/15 00:55:51;;;;;;;1999.90;999.90;;;;;;;5.64;100.00;102145.53;5045448;28;20039;-77
2022/03/15 00:58:24;;;;;;;1999.90;999.90;;;;;;;5.51;100.00;102138.28;5047038;28;20057;-76
2022/03/15 01:00:57;;;;;;;1999.90;999.90;;;;;;;5.44;100.00;102145.53;5032385;28;20061;-76
2022/03/15 01:03:33;;;;;;;1999.90;999.90;;;;;;;5.39;100.00;102142.66;5036092;28;20044;-77
2022/03/15 01:06:06;;;;;;;1999.90;999.90;;;;;;;5.39;100.00;102143.47;5036185;28;20051;-76
2022/03/15 01:08:41;;;;;;;1999.90;999.90;;;;;;;5.25;100.00;102150.75;5028005;28;20057;-76
2022/03/15 01:11:14;;;;;;;1999.90;999.90;;;;;;;5.18;100.00;102143.69;5036692;28;20052;-77
2022/03/15 01:13:48;;;;;;;1999.90;999.90;;;;;;;5.14;100.00;102143.28;5037631;28;20676;-77
2022/03/15 01:16:24;;;;;;;1999.90;999.90;;;;;;;5.11;100.00;102141.00;5034548;28;20045;-78
2022/03/15 01:18:58;;;;;;;1999.90;999.90;;;;;;;5.09;100.00;102141.19;5031915;28;20162;-77
2022/03/15 01:21:35;;;;;;;1999.90;999.90;;;;;;;5.15;100.00;102139.56;5042475;28;20064;-76
2022/03/15 01:24:06;;;;;;;1999.90;999.90;;;;;;;4.98;100.00;102136.41;5040762;28;20060;-76
2022/03/15 01:26:39;;;;;;;1999.90;999.90;;;;;;;4.94;100.00;102138.72;5045628;28;20046;-77
2022/03/15 01:29:12;;;;;;;1999.90;999.90;;;;;;;4.95;100.00;102128.75;5055210;28;20053;-77
2022/03/15 01:31:46;;;;;;;1999.90;999.90;;;;;;;4.92;100.00;102129.97;5048387;28;20045;-77
2022/03/15 01:34:14;;;;;;;1999.90;999.90;;;;;;;4.90;100.00;102136.63;5039703;28;20041;-77
2022/03/15 01:36:47;;;;;;;1999.90;999.90;;;;;;;4.88;100.00;102131.44;5049551;28;20052;-75
2022/03/15 01:39:22;;;;;;;1999.90;999.90;;;;;;;4.88;100.00;102127.91;5037730;28;20060;-77
2022/03/15 01:41:56;;;;;;;1999.90;999.90;;;;;;;4.86;100.00;102128.13;5038840;28;20042;-77
2022/03/15 01:44:26;;;;;;;1999.90;999.90;;;;;;;4.78;100.00;102122.94;5050624;28;20060;-76
2022/03/15 01:47:00;;;;;;;1999.90;999.90;;;;;;;4.86;100.00;102135.38;5032304;28;20053;-78
2022/03/15 01:49:31;;;;;;;1999.90;999.90;;;;;;;4.80;100.00;102134.31;5044412;28;20540;-76
2022/03/15 01:52:05;;;;;;;1999.90;999.90;;;;;;;4.94;100.00;102130.63;5034764;28;20041;-78
2022/03/15 01:54:40;;;;;;;1999.90;999.90;;;;;;;4.98;100.00;102132.91;5044913;28;20044;-77
2022/03/15 01:57:15;;;;;;;1999.90;999.90;;;;;;;5.01;100.00;102136.00;5057361;28;20053;-77
2022/03/15 01:59:48;;;;;;;1999.90;999.90;;;;;;;5.06;100.00;102141.63;5030890;28;20057;-77
2022/03/15 02:02:17;;;;;;;1999.90;999.90;;;;;;;4.98;100.00;102141.00;5049407;28;20045;-77
2022/03/15 02:04:45;;;;;;;1999.90;999.90;;;;;;;4.94;100.00;102138.72;5045148;28;20060;-76
2022/03/15 02:07:18;;;;;;;1999.90;999.90;;;;;;;5.02;100.00;102128.75;5045079;28;20045;-76
2022/03/15 02:09:49;;;;;;;1999.90;999.90;;;;;;;5.06;100.00;102127.31;5033883;28;20137;-76
2022/03/15 02:12:22;;;;;;;1999.90;999.90;;;;;;;5.02;100.00;102134.16;5036515;28;20048;-77
2022/03/15 02:14:57;;;;;;;1999.90;999.90;;;;;;;4.99;100.00;102139.97;5031512;28;20061;-77
2022/03/15 02:17:30;;;;;;;1999.90;999.90;;;;;;;4.98;100.00;102135.59;5026524;28;20050;-77
2022/03/15 02:20:09;;;;;;;1999.90;999.90;;;;;;;4.98;100.00;102146.38;5034262;28;20060;-77
2022/03/15 02:22:42;;;;;;;1999.90;999.90;;;;;;;4.90;100.00;102136.63;5059022;28;20056;-77
2022/03/15 02:25:15;;;;;;;1999.90;999.90;;;;;;;4.98;100.00;102144.50;5034293;28;20056;-77
2022/03/15 02:27:48;;;;;;;1999.90;999.90;;;;;;;4.94;100.00;102149.50;5028461;28;20418;-76
2022/03/15 02:30:22;;;;;;;1999.90;999.90;;;;;;;4.94;100.00;102145.97;5033101;28;20409;-77
2022/03/15 02:32:51;;;;;;;1999.90;999.90;;;;;;;4.91;100.00;102146.38;5038122;28;20409;-77
2022/03/15 02:35:25;;;;;;;1999.90;999.90;;;;;;;4.94;100.00;102148.66;5032217;28;20049;-77
2022/03/15 02:37:58;;;;;;;1999.90;999.90;;;;;;;4.87;100.00;102143.25;5038209;28;20049;-79
2022/03/15 02:40:27;;;;;;;1999.90;999.90;;;;;;;4.97;100.00;102148.25;5038402;28;20061;-79
2022/03/15 02:42:56;;;;;;;1999.90;999.90;;;;;;;4.94;100.00;102135.16;5045515;28;20052;-78
2022/03/15 02:45:29;;;;;;;1999.90;999.90;;;;;;;4.89;100.00;102143.88;5040022;28;20049;-78
2022/03/15 02:47:57;;;;;;;1999.90;999.90;;;;;;;4.83;100.00;102149.28;5034644;28;20048;-79
2022/03/15 02:50:32;;;;;;;1999.90;999.90;;;;;;;4.83;100.00;102144.69;5036189;28;20485;-78
2022/03/15 02:53:00;;;;;;;1999.90;999.90;;;;;;;4.78;100.00;102136.41;5038085;28;20060;-80
2022/03/15 02:55:29;;;;;;;1999.90;999.90;;;;;;;4.85;100.00;102150.72;5055404;28;20068;-80
2022/03/15 02:58:02;;;;;;;1999.90;999.90;;;;;;;4.82;100.00;102151.16;5050943;28;20045;-80
2022/03/15 03:00:31;;;;;;;1999.90;999.90;;;;;;;4.72;100.00;102139.91;5036152;28;20057;-78
2022/03/15 03:03:04;;;;;;;1999.90;999.90;;;;;;;4.78;100.00;102141.81;5033393;28;20041;-80
2022/03/15 03:05:39;;;;;;;1999.90;999.90;;;;;;;4.66;100.00;102130.78;5028983;28;20064;-78
2022/03/15 03:08:12;;;;;;;1999.90;999.90;;;;;;;4.75;100.00;102152.97;5039630;28;20045;-79
2022/03/15 03:10:45;;;;;;;1999.90;999.90;;;;;;;4.60;100.00;102145.09;5050347;28;20042;-78
2022/03/15 03:13:26;;;;;;;1999.90;999.90;;;;;;;4.51;100.00;102157.09;5028073;28;20053;-78
2022/03/15 03:16:00;;;;;;;1999.90;999.90;;;;;;;4.46;100.00;102159.53;5039632;28;20060;-78
2022/03/15 03:18:34;;;;;;;1999.90;999.90;;;;;;;4.50;100.00;102153.56;5035567;28;20064;-79
2022/03/15 03:21:09;;;;;;;1999.90;999.90;;;;;;;4.50;100.00;102161.66;5047378;28;20078;-78
2022/03/15 03:23:42;;;;;;;1999.90;999.90;;;;;;;4.45;100.00;102156.03;5026556;28;20045;-77
2022/03/15 03:26:10;;;;;;;1999.90;999.90;;;;;;;4.48;100.00;102163.72;5032327;28;20053;-77
2022/03/15 03:28:44;;;;;;;1999.90;999.90;;;;;;;4.49;100.00;102160.00;5044428;28;20687;-79
2022/03/15 03:31:17;;;;;;;1999.90;999.90;;;;;;;4.54;100.00;102167.47;5031289;28;20053;-79
2022/03/15 03:33:45;;;;;;;1999.90;999.90;;;;;;;4.53;100.00;102163.94;5035369;28;20057;-79
2022/03/15 03:36:16;;;;;;;1999.90;999.90;;;;;;;4.56;100.00;102163.53;5029175;28;20052;-79
2022/03/15 03:38:50;;;;;;;1999.90;999.90;;;;;;;4.53;100.00;102163.09;5033071;28;20056;-77
2022/03/15 03:41:18;;;;;;;1999.90;999.90;;;;;;;4.68;100.00;102162.94;5044766;28;20068;-78
2022/03/15 03:43:51;;;;;;;1999.90;999.90;;;;;;;4.58;100.00;102168.72;5037860;28;20053;-77
2022/03/15 03:46:24;;;;;;;1999.90;999.90;;;;;;;4.49;100.00;102167.22;5037250;28;20045;-79
2022/03/15 03:48:58;;;;;;;1999.90;999.90;;;;;;;4.51;100.00;102157.09;5027766;28;20058;-77
2022/03/15 03:51:32;;;;;;;1999.90;999.90;;;;;;;4.60;100.00;102161.28;5039137;28;20048;-78
2022/03/15 03:54:05;;;;;;;1999.90;999.90;;;;;;;4.46;100.00;102162.25;5044170;28;20058;-78
2022/03/15 03:56:38;;;;;;;1999.90;999.90;;;;;;;4.51;100.00;102166.00;5029846;28;20053;-78
2022/03/15 03:59:11;;;;;;;1999.90;999.90;;;;;;;4.47;100.00;102159.34;5026477;28;20563;-79
2022/03/15 04:01:45;;;;;;;1999.90;999.90;;;;;;;4.46;100.00;102148.75;5038054;28;20045;-77
2022/03/15 04:04:19;;;;;;;1999.90;999.90;;;;;;;4.37;100.00;102154.34;5028497;28;20397;-78
2022/03/15 04:06:48;;;;;;;1999.90;999.90;;;;;;;4.39;100.00;102144.19;5041063;28;20052;-77
2022/03/15 04:09:16;;;;;;;1999.90;999.90;;;;;;;4.43;100.00;102156.25;5045584;28;20053;-78
2022/03/15 04:11:49;;;;;;;1999.90;999.90;;;;;;;4.33;100.00;102141.47;5045424;28;20096;-78
2022/03/15 04:14:22;;;;;;;1999.90;999.90;;;;;;;4.40;100.00;102156.63;5037047;28;20052;-76
2022/03/15 04:16:56;;;;;;;1999.90;999.90;;;;;;;4.42;100.00;102159.13;5042982;28;20053;-77
2022/03/15 04:19:29;;;;;;;1999.90;999.90;;;;;;;4.34;100.00;102167.41;5031218;28;20397;-78
2022/03/15 04:21:59;;;;;;;1999.90;999.90;;;;;;;4.38;100.00;102158.69;5042436;28;20535;-78
2022/03/15 04:24:32;;;;;;;1999.90;999.90;;;;;;;4.24;100.00;102167.78;5044242;28;20049;-77
2022/03/15 04:27:05;;;;;;;1999.90;999.90;;;;;;;4.26;100.00;102177.28;5028868;28;20068;-78
2022/03/15 04:29:38;;;;;;;1999.90;999.90;;;;;;;4.35;100.00;102177.13;5035092;28;20063;-78
2022/03/15 04:32:12;;;;;;;1999.90;999.90;;;;;;;4.20;100.00;102175.41;5034828;28;20056;-77
2022/03/15 04:34:45;;;;;;;1999.90;999.90;;;;;;;4.19;100.00;102176.44;5032619;28;20057;-79
2022/03/15 04:37:20;;;;;;;1999.90;999.90;;;;;;;4.23;100.00;102174.19;5042176;28;20049;-77
2022/03/15 04:39:53;;;;;;;1999.90;999.90;;;;;;;4.19;100.00;102175.63;5030809;28;20045;-76
2022/03/15 04:42:26;;;;;;;1999.90;999.90;;;;;;;4.20;100.00;102175.41;5053427;28;20060;-79
2022/03/15 04:44:59;;;;;;;1999.90;999.90;;;;;;;4.25;100.00;102188.28;5047150;28;20052;-78
2022/03/15 04:47:29;;;;;;;1999.90;999.90;;;;;;;4.23;100.00;102171.50;5038387;28;20060;-76
2022/03/15 04:49:57;;;;;;;1999.90;999.90;;;;;;;4.19;100.00;102170.22;5041592;28;20469;-77
2022/03/15 04:52:34;;;;;;;1999.90;999.90;;;;;;;4.21;100.00;102160.91;5044958;28;20068;-78
2022/03/15 04:55:08;;;;;;;1999.90;999.90;;;;;;;4.19;100.00;102170.22;5049168;28;20045;-78
2022/03/15 04:57:37;;;;;;;1999.90;999.90;;;;;;;4.07;100.00;102151.94;5036397;28;20079;-77
2022/03/15 05:00:10;;;;;;;1999.90;999.90;;;;;;;4.16;100.00;102165.25;5056311;28;20049;-76
2022/03/15 05:02:44;;;;;;;1999.90;999.90;;;;;;;4.24;100.00;102160.50;5043037;28;20057;-77
2022/03/15 05:05:17;;;;;;;1999.90;999.90;;;;;;;4.26;100.00;102166.53;5039504;28;20073;-78
2022/03/15 05:07:49;;;;;;;1999.90;999.90;;;;;;;4.21;100.00;102162.78;5034192;28;20041;-76
2022/03/15 05:13:07;;;;;;;1999.90;999.90;;;;;;;4.03;100.00;102161.47;5048003;28;20064;-78
2022/03/15 05:15:42;;;;;;;1999.90;999.90;;;;;;;4.07;100.00;102156.50;5029881;28;20485;-76
2022/03/15 05:18:11;;;;;;;1999.90;999.90;;;;;;;3.90;100.00;102146.03;5045849;28;20545;-77
2022/03/15 05:20:44;;;;;;;1999.90;999.90;;;;;;;3.97;100.00;102150.66;5031562;28;20522;-78
2022/03/15 05:23:18;;;;;;;1999.90;999.90;;;;;;;3.99;100.00;102151.25;5045221;28;20063;-77
2022/03/15 05:25:46;;;;;;;1999.90;999.90;;;;;;;3.92;100.00;102154.78;5050859;28;20057;-79
2022/03/15 05:28:20;;;;;;;1999.90;999.90;;;;;;;3.94;100.00;102156.44;5032093;28;20107;-78
2022/03/15 05:30:53;;;;;;;1999.90;999.90;;;;;;;3.90;100.00;102159.50;5045599;28;20060;-77
2022/03/15 05:33:28;;;;;;;1999.90;999.90;;;;;;;4.01;100.00;102151.91;5027569;28;20764;-77
2022/03/15 05:36:01;;;;;;;1999.90;999.90;;;;;;;3.98;100.00;102155.84;5032679;28;20502;-79
2022/03/15 05:38:36;;;;;;;1999.90;999.90;;;;;;;4.02;100.00;102154.41;5042409;28;20049;-77
2022/03/15 05:41:09;;;;;;;1999.90;999.90;;;;;;;3.88;100.00;102137.34;5040788;28;20037;-79
2022/03/15 05:43:42;;;;;;;1999.90;999.90;;;;;;;3.84;100.00;102136.06;5030827;28;20821;-80
2022/03/15 05:46:17;;;;;;;1999.90;999.90;;;;;;;3.88;100.00;102145.44;5038024;28;20037;-79
2022/03/15 05:48:50;;;;;;;1999.90;999.90;;;;;;;3.97;100.00;102148.78;5045602;28;20064;-77
2022/03/15 05:51:23;;;;;;;1999.90;999.90;;;;;;;3.95;100.00;102137.38;5039234;28;20057;-79
2022/03/15 05:53:58;;;;;;;1999.90;999.90;;;;;;;3.87;100.00;102148.31;5029835;28;20061;-78
2022/03/15 05:56:34;;;;;;;1999.90;999.90;;;;;;;3.97;100.00;102154.16;5028653;28;20128;-78
2022/03/15 05:59:08;;;;;;;1999.90;999.90;;;;;;;4.00;100.00;102142.97;5027728;28;20069;-78
2022/03/15 06:01:41;;;;;;;1999.90;999.90;;;;;;;4.11;100.00;102154.25;5039211;28;20048;-78
2022/03/15 06:04:15;;;;;;;1999.90;999.90;;;;;;;4.12;100.00;102147.81;5039287;28;20044;-78
2022/03/15 06:06:48;;;;;;;1999.90;999.90;;;;;;;4.21;100.00;102158.22;5038870;28;20049;-79
2022/03/15 06:09:23;;;;;;;1999.90;999.90;;;;;;;4.19;100.00;102157.59;5030406;28;20050;-78
2022/03/15 06:11:57;;;;;;;1999.90;999.90;;;;;;;4.14;100.00;102164.59;5044390;28;20044;-79
2022/03/15 06:14:25;;;;;;;1999.90;999.90;;;;;;;4.18;100.00;102166.69;5036040;28;20057;-79
2022/03/15 06:16:58;;;;;;;1999.90;999.90;;;;;;;4.21;100.00;102168.16;5038509;28;20045;-80
2022/03/15 06:19:31;;;;;;;1999.90;999.90;;;;;;;4.06;100.00;102169.13;5044856;28;20045;-79
2022/03/15 06:22:05;;;;;;;1999.90;999.90;;;;;;;4.09;100.00;102171.44;5037378;28;20056;-78
2022/03/15 06:24:39;;;;;;;1999.90;999.90;;;;;;;4.05;100.00;102155.88;5032540;28;20084;-79
2022/03/15 06:27:12;;;;;;;1999.90;999.90;;;;;;;3.99;100.00;102167.44;5044398;28;20059;-77
2022/03/15 06:29:46;;;;;;;1999.90;999.90;;;;;;;3.99;100.00;102170.13;5051030;28;20045;-77
2022/03/15 06:32:14;;;;;;;1999.90;999.90;;;;;;;4.02;100.00;102167.03;5043092;28;20605;-77
2022/03/15 06:34:47;;;;;;;1999.90;999.90;;;;;;;4.07;100.00;102173.50;5032639;28;20294;-78
2022/03/15 06:37:15;;;;;;;1999.90;999.90;;;;;;;4.06;100.00;102169.13;5031347;28;20049;-78
2022/03/15 06:39:50;;;;;;;1999.90;999.90;;;;;;;3.97;100.00;102175.72;5036842;28;20397;-78
2022/03/15 06:42:23;;;;;;;1999.90;999.90;;;;;;;4.04;100.00;102181.97;5035874;28;20065;-77
2022/03/15 06:44:56;;;;;;;1999.90;999.90;;;;;;;4.04;100.00;102176.56;5031533;28;20045;-76
2022/03/15 06:47:29;;;;;;;1999.90;999.90;;;;;;;3.98;100.00;102177.38;5037249;28;20808;-79
2022/03/15 06:50:04;;;;;;;1999.90;999.90;;;;;;;4.07;100.00;102180.72;5034140;28;20033;-78
2022/03/15 06:52:37;;;;;;;1999.90;999.90;;;;;;;4.12;100.00;102178.28;5029964;28;20072;-78
2022/03/15 06:55:13;;;;;;;1999.90;999.90;;;;;;;4.27;100.00;102180.84;5030273;28;20056;-77
2022/03/15 06:57:46;;;;;;;1999.90;999.90;;;;;;;4.39;100.00;102179.25;5043299;28;20060;-78
2022/03/15 07:00:22;;;;;;;1999.90;999.90;;;;;;;4.33;100.00;102184.59;5032257;28;20040;-79
2022/03/15 07:02:55;;;;;;;1999.90;999.90;;;;;;;4.40;100.00;102180.88;5042903;28;20053;-78
2022/03/15 07:05:28;;;;;;;1999.90;999.90;;;;;;;4.43;100.00;102171.56;5041062;28;20842;-78
2022/03/15 07:08:01;;;;;;;1999.90;999.90;;;;;;;4.48;100.00;102170.97;5035275;28;20056;-79
2022/03/15 07:10:36;;;;;;;1999.90;999.90;;;;;;;4.45;100.00;102166.81;5039080;28;20059;-79
2022/03/15 07:13:09;;;;;;;1999.90;999.90;;;;;;;4.52;100.00;102170.34;5034306;28;20053;-79
2022/03/15 07:15:42;;;;;;;1999.90;999.90;;;;;;;4.60;100.00;102169.34;5031799;28;20080;-79
2022/03/15 07:18:11;;;;;;;1999.90;999.90;;;;;;;4.61;100.00;102157.50;5037656;28;20041;-79
2022/03/15 07:20:44;;;;;;;1999.90;999.90;;;;;;;4.70;100.00;102164.38;5036984;28;20045;-79
2022/03/15 07:23:17;;;;;;;1999.90;999.90;;;;;;;4.54;100.00;102172.84;5033177;28;20049;-79
2022/03/15 07:25:51;;;;;;;1999.90;999.90;;;;;;;4.76;100.00;102174.38;5031597;28;20049;-79
2022/03/15 07:28:25;;;;;;;1999.90;999.90;;;;;;;4.79;100.00;102175.00;5022271;28;20046;-79
2022/03/15 07:30:58;;;;;;;1999.90;999.90;;;;;;;4.80;100.00;102188.28;5022253;28;20432;-79
2022/03/15 07:33:31;;;;;;;1999.90;999.90;;;;;;;4.79;100.00;102185.78;5007444;28;20053;-80
2022/03/15 07:36:04;;;;;;;1999.90;999.90;;;;;;;4.81;100.00;102189.94;5010433;28;20084;-79
2022/03/15 07:38:38;;;;;;;1999.90;999.90;;;;;;;4.77;100.00;102188.69;5015241;28;20052;-80
2022/03/15 07:41:07;;;;;;;1999.90;999.90;;;;;;;4.82;100.00;102188.91;5023353;28;20064;-80
2022/03/15 07:43:40;;;;;;;1999.90;999.90;;;;;;;4.88;100.00;102189.97;5019972;28;20053;-80
2022/03/15 07:46:09;;;;;;;1999.90;999.90;;;;;;;4.90;100.00;102196.81;5017764;28;20054;-80
2022/03/15 07:48:42;;;;;;;1999.90;999.90;;;;;;;4.90;100.00;102190.56;5007760;28;20056;-80
2022/03/15 07:51:15;;;;;;;1999.90;999.90;;;;;;;5.06;100.00;102184.78;5008438;28;20064;-80
2022/03/15 07:53:43;;;;;;;1999.90;999.90;;;;;;;5.09;100.00;102187.06;5010715;28;20048;-79
2022/03/15 07:56:18;;;;;;;1999.90;999.90;;;;;;;5.13;100.00;102190.19;5008629;28;20060;-81
2022/03/15 07:58:51;;;;;;;1999.90;999.90;;;;;;;5.02;100.00;102186.22;5011176;28;20063;-80
2022/03/15 08:01:20;;;;;;;1999.90;999.90;;;;;;;5.08;100.00;102190.81;5012548;28;20044;-80
2022/03/15 08:03:49;;;;;;;1999.90;999.90;;;;;;;5.19;100.00;102189.38;5010843;28;20056;-80
2022/03/15 08:06:23;;;;;;;1999.90;999.90;;;;;;;5.30;100.00;102193.31;5016097;28;20568;-79
2022/03/15 08:08:57;;;;;;;1999.90;999.90;;;;;;;5.30;100.00;102193.31;5015633;28;20057;-81
2022/03/15 08:11:32;;;;;;;1999.90;999.90;;;;;;;5.27;100.00;102194.59;5016875;28;20053;-80
2022/03/15 08:14:00;;;;;;;1999.90;999.90;;;;;;;5.27;100.00;102204.53;5011128;28;20052;-80
2022/03/15 08:16:34;;;;;;;1999.90;999.90;;;;;;;5.42;100.00;102197.06;5016916;28;20045;-80
2022/03/15 08:19:08;;;;;;;1999.90;999.90;;;;;;;5.56;100.00;102210.56;5009875;28;20390;-81
2022/03/15 08:21:41;;;;;;;1999.90;999.90;;;;;;;5.66;100.00;102202.03;5008427;28;20099;-81
2022/03/15 08:24:11;;;;;;;1999.90;999.90;;;;;;;5.83;100.00;102205.97;5008885;28;20058;-80
2022/03/15 08:26:40;;;;;;;1999.90;999.90;;;;;;;5.75;100.00;102192.69;5012721;28;20094;-80
2022/03/15 08:29:09;;;;;;;1999.90;999.90;;;;;;;5.87;100.00;102199.09;5014312;28;20116;-79
2022/03/15 08:31:42;;;;;;;1999.90;999.90;;;;;;;5.76;100.00;102199.75;5008986;28;20158;-80
2022/03/15 08:34:17;;;;;;;1999.90;999.90;;;;;;;5.87;100.00;102196.41;5017287;28;20057;-79
2022/03/15 08:36:45;;;;;;;1999.90;999.90;;;;;;;5.96;100.00;102207.81;5014304;28;20095;-80
2022/03/15 08:39:21;;;;;;;1999.90;999.90;;;;;;;5.93;100.00;102200.94;5010455;28;20056;-82
2022/03/15 08:41:55;;;;;;;1999.90;999.90;;;;;;;6.00;100.00;102208.25;5019358;28;20060;-81
2022/03/15 08:44:25;;;;;;;1999.90;999.90;;;;;;;5.82;100.00;102189.97;5026691;28;20061;-80
2022/03/15 08:46:59;;;;;;;1999.90;999.90;;;;;;;6.03;100.00;102197.03;5002886;28;20053;-79
2022/03/15 08:49:32;;;;;;;1999.90;999.90;;;;;;;6.10;100.00;102197.81;5014246;28;20064;-80
2022/03/15 08:52:07;;;;;;;1999.90;999.90;;;;;;;6.13;100.00;102195.53;5012225;28;20052;-80
2022/03/15 08:54:36;;;;;;;1999.90;999.90;;;;;;;6.09;100.00;102196.16;5015627;28;20053;-79
2022/03/15 08:57:10;;;;;;;1999.90;999.90;;;;;;;6.01;100.00;102194.53;5014665;28;20493;-80
2022/03/15 08:59:44;;;;;;;1999.90;999.90;;;;;;;5.95;100.00;102184.53;5012194;28;20058;-80
2022/03/15 09:02:17;;;;;;;1999.90;999.90;;;;;;;6.18;100.00;102178.66;5013918;28;20057;-80
2022/03/15 09:04:45;;;;;;;1999.90;999.90;;;;;;;6.27;100.00;102187.34;5017356;28;20060;-79
2022/03/15 09:07:18;;;;;;;1999.90;999.90;;;;;;;6.21;100.00;102193.63;5018505;28;20049;-81
2022/03/15 09:09:47;;;;;;;1999.90;999.90;;;;;;;6.44;100.00;102183.13;5010276;28;20065;-80
2022/03/15 09:12:22;;;;;;;1999.90;999.90;;;;;;;6.43;100.00;102177.94;4999921;28;20065;-81
2022/03/15 09:14:55;;;;;;;1999.90;999.90;;;;;;;6.58;100.00;102183.91;5012700;28;20057;-80
2022/03/15 09:17:28;;;;;;;1999.90;999.90;;;;;;;6.74;100.00;102179.03;5005904;28;20049;-82
2022/03/15 09:19:56;;;;;;;1999.90;999.90;;;;;;;6.87;100.00;102181.66;5009358;28;20059;-80
2022/03/15 09:22:29;;;;;;;1999.90;999.90;;;;;;;6.96;100.00;102172.25;5008552;28;20044;-81
2022/03/15 09:25:03;;;;;;;1999.90;999.90;;;;;;;6.91;100.00;102177.47;5008781;28;20103;-81
2022/03/15 09:27:38;;;;;;;1999.90;999.90;;;;;;;6.91;100.00;102179.38;5009924;28;20049;-81
2022/03/15 09:30:07;;;;;;;1999.90;999.90;;;;;;;6.98;100.00;102172.03;5009045;28;20064;-81
2022/03/15 09:32:40;;;;;;;1999.90;999.90;;;;;;;7.05;100.00;102178.22;5013597;28;20041;-81
2022/03/15 09:35:14;;;;;;;1999.90;999.90;;;;;;;6.98;100.00;102169.31;5027272;28;20056;-79
2022/03/15 09:37:49;;;;;;;1999.90;999.90;;;;;;;7.04;100.00;102165.72;5014207;28;20721;-81
2022/03/15 09:40:23;;;;;;;1999.90;999.90;;;;;;;7.03;100.00;102166.78;5008864;28;20064;-81
2022/03/15 09:43:01;;;;;;;1999.90;999.90;;;;;;;7.13;100.00;102160.88;5006301;28;20068;-81
2022/03/15 09:45:36;;;;;;;1999.90;999.90;;;;;;;7.35;100.00;102174.88;5012227;28;20061;-80
2022/03/15 09:48:11;;;;;;;1999.90;999.90;;;;;;;7.34;100.00;102175.09;5009286;28;20069;-81
2022/03/15 09:50:48;;;;;;;1999.90;999.90;;;;;;;7.24;100.00;102172.88;5004224;28;20054;-79
2022/03/15 09:53:21;;;;;;;1999.90;999.90;;;;;;;7.36;100.00;102179.25;5012354;28;20048;-80
2022/03/15 09:55:55;;;;;;;1999.90;999.90;;;;;;;7.37;100.00;102170.03;5018073;28;20079;-81
2022/03/15 09:58:29;;;;;;;1999.90;999.90;;;;;;;7.44;100.00;102172.69;5011024;28;20057;-80
2022/03/15 10:01:03;;;;;;;1999.90;999.90;;;;;;;7.56;100.00;102164.69;5009750;28;20599;-79
2022/03/15 10:03:36;;;;;;;1999.90;999.90;;;;;;;7.62;100.00;102164.63;5015717;28;20845;-80
2022/03/15 10:06:10;;;;;;;1984.05;999.90;;;;;;;7.70;100.00;102168.09;5009941;28;20525;-80
2022/03/15 10:08:43;;;;;;;1917.25;999.90;;;;;;;7.91;100.00;102164.97;5024410;28;20071;-80
2022/03/15 10:11:12;;;;;;;1837.00;999.90;;;;;;;7.76;100.00;102168.03;5008928;28;20556;-80
2022/03/15 10:13:43;;;;;;;1770.95;999.90;;;;;;;7.89;100.00;102169.75;5008848;28;20045;-80
2022/03/15 10:16:16;;;;;;;1719.07;999.90;;;;;;;7.96;100.00;102162.38;5015598;28;20057;-81
2022/03/15 10:18:52;;;;;;;1595.20;999.90;;;;;;;7.86;100.00;102156.66;5007363;28;20067;-81
2022/03/15 10:21:26;;;;;;;1530.10;999.90;;;;;;;8.02;100.00;102147.09;5010689;28;20060;-79
2022/03/15 10:23:59;;;;;;;1540.80;999.90;;;;;;;8.08;100.00;102143.47;5012384;28;20061;-80
2022/03/15 10:26:38;;;;;;;1538.03;999.90;;;;;;;8.09;100.00;102126.16;5023523;28;20060;-79
2022/03/15 10:29:15;;;;;;;1516.10;999.90;;;;;;;8.26;100.00;102139.94;5013965;28;20052;-79
2022/03/15 10:31:48;;;;;;;1483.90;999.90;;;;;;;8.39;100.00;102138.09;5005501;28;20053;-80
2022/03/15 10:34:18;;;;;;;1461.45;999.90;;;;;;;8.50;100.00;102140.06;5011891;28;20061;-79
2022/03/15 10:36:54;;;;;;;1399.80;999.90;;;;;;;8.33;100.00;102134.41;5010829;28;20469;-80
2022/03/15 10:39:28;;;;;;;1361.72;999.90;;;;;;;8.38;100.00;102142.69;5010687;28;20049;-80
2022/03/15 10:42:04;;;;;;;1358.05;999.90;;;;;;;8.54;100.00;102143.97;5008490;28;20716;-79
2022/03/15 10:44:40;;;;;;;1360.38;999.90;;;;;;;8.63;100.00;102144.47;5009173;28;20057;-80
2022/03/15 10:47:18;;;;;;;1352.88;999.90;;;;;;;8.71;100.00;102138.69;5006163;28;20049;-81
2022/03/15 10:49:54;;;;;;;1334.68;999.90;;;;;;;8.78;100.00;102139.47;5006859;28;20061;-80
2022/03/15 10:52:34;;;;;;;1290.78;999.90;;;;;;;8.74;100.00;102132.84;5012788;28;20644;-80
2022/03/15 10:55:12;;;;;;;1276.70;999.90;;;;;;;8.91;100.00;102137.56;5021700;28;20049;-80
2022/03/15 10:57:47;;;;;;;1250.32;999.90;;;;;;;8.85;100.00;102142.91;5024997;28;20841;-80
2022/03/15 11:00:19;;;;;;;1210.50;999.90;;;;;;;8.75;100.00;102126.31;5010446;28;20049;-80
2022/03/15 11:02:48;;;;;;;1196.35;999.90;;;;;;;8.97;100.00;102131.22;5011235;28;20513;-79
2022/03/15 11:05:27;;;;;;;1043.28;962.15;;;;;;;8.74;100.00;102126.56;5018203;28;20057;-80
2022/03/15 11:07:55;;;;;;;329.17;310.65;;;;;;;8.94;100.00;102124.38;5012477;28;20068;-80
2022/03/15 11:10:28;;;;;;;384.08;361.60;;;;;;;9.06;100.00;102118.13;5012683;28;20886;-79
2022/03/15 11:13:07;;;;;;;448.02;420.98;;;;;;;9.16;100.00;102116.50;5013494;28;20065;-79
2022/03/15 11:15:39;;;;;;;409.42;385.05;;;;;;;9.18;100.00;102114.38;5012105;28;20052;-80